createdAt,value
2023-04-22T00:01:26.111Z,20.20
2023-04-22T00:04:48.444Z,20.20
2023-04-22T00:08:11.005Z,20.20
2023-04-22T00:11:33.241Z,20.20
2023-04-22T00:14:55.473Z,20.20
2023-04-22T00:18:17.828Z,20.20
2023-04-22T00:21:40.057Z,20.20
2023-04-22T00:25:02.445Z,20.20
2023-04-22T00:28:24.701Z,20.20
2023-04-22T00:31:47.165Z,20.20
2023-04-22T00:35:09.634Z,20.10
2023-04-22T00:38:31.864Z,20.10
2023-04-22T00:41:54.785Z,20.10
2023-04-22T00:45:20.882Z,20.10
2023-04-22T00:48:43.725Z,20.20
2023-04-22T00:52:06.849Z,20.10
2023-04-22T00:55:29.217Z,20.10
2023-04-22T00:58:52.562Z,20.10
2023-04-22T01:02:15.711Z,20.10
2023-04-22T01:05:39.222Z,20.10
2023-04-22T01:09:02.248Z,20.10
2023-04-22T01:12:24.470Z,20.10
2023-04-22T01:15:50.450Z,20.10
2023-04-22T01:19:13.039Z,20.10
2023-04-22T01:22:37.343Z,20.10
2023-04-22T01:26:00.172Z,20.10
2023-04-22T01:29:22.568Z,20.10
2023-04-22T01:32:45.203Z,20.10
2023-04-22T01:36:07.793Z,20.10
2023-04-22T01:39:30.565Z,20.10
2023-04-22T01:42:53.083Z,20.10
2023-04-22T01:46:18.107Z,20.10
2023-04-22T01:49:40.652Z,20.10
2023-04-22T01:53:03.366Z,20.10
2023-04-22T01:56:25.691Z,20.10
2023-04-22T01:59:47.964Z,20.10
2023-04-22T02:03:10.667Z,20.10
2023-04-22T02:06:32.988Z,20.10
2023-04-22T02:09:55.235Z,20.00
2023-04-22T02:13:17.585Z,20.10
2023-04-22T02:16:41.657Z,20.10
2023-04-22T02:20:05.337Z,20.10
2023-04-22T02:23:27.870Z,20.10
2023-04-22T02:26:50.533Z,20.10
2023-04-22T02:30:12.942Z,20.10
2023-04-22T02:33:36.413Z,20.10
2023-04-22T02:36:58.673Z,20.00
2023-04-22T02:40:21.059Z,20.10
2023-04-22T02:43:46.108Z,20.00
2023-04-22T02:47:09.456Z,20.00
2023-04-22T02:50:31.845Z,20.00
2023-04-22T02:53:54.345Z,20.00
2023-04-22T02:57:16.629Z,20.00
2023-04-22T03:00:38.940Z,20.00
2023-04-22T03:04:01.377Z,20.00
2023-04-22T03:07:23.784Z,20.00
2023-04-22T03:10:46.789Z,20.00
2023-04-22T03:14:09.268Z,20.00
2023-04-22T03:17:31.617Z,20.00
2023-04-22T03:20:56.364Z,20.00
2023-04-22T03:24:18.887Z,20.00
2023-04-22T03:27:45.218Z,20.00
2023-04-22T03:31:07.573Z,20.00
2023-04-22T03:34:30.463Z,20.00
2023-04-22T03:37:52.861Z,20.00
2023-04-22T03:41:21.566Z,20.00
2023-04-22T03:44:44.318Z,20.00
2023-04-22T03:48:06.996Z,20.00
2023-04-22T03:51:35.979Z,20.00
2023-04-22T03:55:03.440Z,20.00
2023-04-22T03:58:26.716Z,19.90
2023-04-22T04:01:53.075Z,20.00
2023-04-22T04:05:17.993Z,19.90
2023-04-22T04:08:40.420Z,19.90
2023-04-22T04:12:03.253Z,19.90
2023-04-22T04:15:32.760Z,19.90
2023-04-22T04:18:55.749Z,19.90
2023-04-22T04:22:21.455Z,19.90
2023-04-22T04:25:51.975Z,19.90
2023-04-22T04:29:14.429Z,19.90
2023-04-22T04:32:42.897Z,19.90
2023-04-22T04:36:10.260Z,19.90
2023-04-22T04:39:33.578Z,19.90
2023-04-22T04:42:57.924Z,19.90
2023-04-22T04:46:29.596Z,19.90
2023-04-22T04:49:53.878Z,19.90
2023-04-22T04:53:17.055Z,19.90
2023-04-22T04:56:41.243Z,19.90
2023-04-22T05:00:06.428Z,19.90
2023-04-22T05:03:28.915Z,19.90
2023-04-22T05:06:51.528Z,19.90
2023-04-22T05:10:14.438Z,19.90
2023-04-22T05:13:37.668Z,19.90
2023-04-22T05:17:01.966Z,19.90
2023-04-22T05:20:24.848Z,19.90
2023-04-22T05:23:47.245Z,19.90
2023-04-22T05:27:10.677Z,19.90
2023-04-22T05:30:33.026Z,19.90
2023-04-22T05:33:55.403Z,19.90
2023-04-22T05:37:18.885Z,19.90
2023-04-22T05:40:41.315Z,19.90
2023-04-22T05:44:05.963Z,19.90
2023-04-22T05:47:28.357Z,19.90
2023-04-22T05:50:51.604Z,19.90
2023-04-22T05:54:13.933Z,19.90
2023-04-22T05:57:36.351Z,19.90
2023-04-22T06:01:02.065Z,19.90
2023-04-22T06:04:45.280Z,19.90
2023-04-22T06:08:08.951Z,19.90
2023-04-22T06:11:32.157Z,19.80
2023-04-22T06:14:54.418Z,19.80
2023-04-22T06:18:16.886Z,19.90
2023-04-22T06:21:40.573Z,19.80
2023-04-22T06:25:03.345Z,19.90
2023-04-22T06:28:27.589Z,19.90
2023-04-22T06:31:54.347Z,19.90
2023-04-22T06:35:16.932Z,19.90
2023-04-22T06:38:39.294Z,19.80
2023-04-22T06:42:15.082Z,19.90
2023-04-22T06:45:57.664Z,20.00
2023-04-22T06:49:39.711Z,20.00
2023-04-22T06:53:17.314Z,20.00
2023-04-22T06:56:39.607Z,20.10
2023-04-22T07:00:02.502Z,20.10
2023-04-22T07:03:26.587Z,20.10
2023-04-22T07:06:57.342Z,20.10
2023-04-22T07:10:19.730Z,20.10
2023-04-22T07:14:02.011Z,20.10
2023-04-22T07:17:24.314Z,20.10
2023-04-22T07:20:46.613Z,20.10
2023-04-22T07:24:12.147Z,20.00
2023-04-22T07:27:37.245Z,20.00
2023-04-22T07:30:59.527Z,20.00
2023-04-22T07:34:21.836Z,20.00
2023-04-22T07:37:44.115Z,20.00
2023-04-22T07:41:06.423Z,20.00
2023-04-22T07:44:28.722Z,20.10
2023-04-22T07:47:51.076Z,20.10
2023-04-22T07:51:13.486Z,20.10
2023-04-22T07:54:35.783Z,20.10
2023-04-22T07:58:00.040Z,20.10
2023-04-22T08:01:22.597Z,20.20
2023-04-22T08:04:45.030Z,20.30
2023-04-22T08:08:07.966Z,20.30
2023-04-22T08:11:30.560Z,20.30
2023-04-22T08:14:52.865Z,20.40
2023-04-22T08:18:15.366Z,20.40
2023-04-22T08:21:38.343Z,20.50
2023-04-22T08:25:01.495Z,20.60
2023-04-22T08:28:23.815Z,20.60
2023-04-22T08:31:46.273Z,20.60
2023-04-22T08:35:09.030Z,20.60
2023-04-22T08:38:31.326Z,20.70
2023-04-22T08:41:53.962Z,20.70
2023-04-22T08:45:16.934Z,20.60
2023-04-22T08:48:39.993Z,20.60
2023-04-22T08:52:02.281Z,20.60
2023-04-22T08:55:25.877Z,20.60
2023-04-22T08:58:49.131Z,20.70
2023-04-22T09:02:17.907Z,20.70
2023-04-22T09:05:41.112Z,20.60
2023-04-22T09:09:03.537Z,20.60
2023-04-22T09:12:26.106Z,20.60
2023-04-22T09:15:48.411Z,20.60
2023-04-22T09:19:15.308Z,20.70
2023-04-22T09:22:43.168Z,20.60
2023-04-22T09:26:05.538Z,20.70
2023-04-22T09:29:31.847Z,20.70
2023-04-22T09:32:56.050Z,20.70
2023-04-22T09:36:23.699Z,20.70
2023-04-22T09:39:49.756Z,20.70
2023-04-22T09:43:12.806Z,20.70
2023-04-22T09:46:35.579Z,20.70
2023-04-22T09:49:57.844Z,20.70
2023-04-22T09:53:21.541Z,20.70
2023-04-22T09:56:49.364Z,20.70
2023-04-22T10:00:14.044Z,20.70
2023-04-22T10:03:36.344Z,20.70
2023-04-22T10:06:59.885Z,20.60
2023-04-22T10:10:23.909Z,20.60
2023-04-22T10:13:46.213Z,20.70
2023-04-22T10:17:10.044Z,20.70
2023-04-22T10:20:36.615Z,20.70
2023-04-22T10:24:00.322Z,20.70
2023-04-22T10:27:22.648Z,20.70
2023-04-22T10:30:44.912Z,20.70
2023-04-22T10:34:13.092Z,20.70
2023-04-22T10:37:35.826Z,20.70
2023-04-22T10:41:01.645Z,20.70
2023-04-22T10:44:28.647Z,20.70
2023-04-22T10:47:50.955Z,20.70
2023-04-22T10:51:40.148Z,20.80
2023-04-22T10:55:03.054Z,20.80
2023-04-22T10:58:25.681Z,20.70
2023-04-22T11:01:52.339Z,20.80
2023-04-22T11:05:27.492Z,20.80
2023-04-22T11:08:51.140Z,20.80
2023-04-22T11:12:39.719Z,20.80
2023-04-22T11:16:03.213Z,20.70
2023-04-22T11:19:25.551Z,20.70
2023-04-22T11:22:51.868Z,20.70
2023-04-22T11:26:14.065Z,20.80
2023-04-22T11:29:36.471Z,20.80
2023-04-22T11:33:00.801Z,20.70
2023-04-22T11:36:23.180Z,20.70
2023-04-22T11:40:05.185Z,20.70
2023-04-22T11:43:27.693Z,20.80
2023-04-22T11:46:49.960Z,20.80
2023-04-22T11:50:13.977Z,20.80
2023-04-22T11:53:37.078Z,20.70
2023-04-22T11:57:06.689Z,20.70
2023-04-22T12:00:34.423Z,20.60
2023-04-22T12:04:01.160Z,20.80
2023-04-22T12:07:23.697Z,20.90
2023-04-22T12:10:48.276Z,20.90
2023-04-22T12:14:12.095Z,21.00
2023-04-22T12:17:34.273Z,21.10
2023-04-22T12:21:08.499Z,21.10
2023-04-22T12:24:31.043Z,21.10
2023-04-22T12:27:53.337Z,20.90
2023-04-22T12:31:15.710Z,20.80
2023-04-22T12:34:38.053Z,20.80
2023-04-22T12:38:00.704Z,20.80
2023-04-22T12:41:23.711Z,20.80
2023-04-22T12:44:46.917Z,20.80
2023-04-22T12:48:09.458Z,20.70
2023-04-22T12:51:31.913Z,20.70
2023-04-22T12:54:54.204Z,20.70
2023-04-22T12:58:16.511Z,20.70
2023-04-22T13:01:38.964Z,20.70
2023-04-22T13:05:01.328Z,20.70
2023-04-22T13:08:23.636Z,20.70
2023-04-22T13:11:49.210Z,20.70
2023-04-22T13:15:12.039Z,20.70
2023-04-22T13:18:34.304Z,20.70
2023-04-22T13:21:56.498Z,20.70
2023-04-22T13:25:18.754Z,20.70
2023-04-22T13:28:41.007Z,20.60
2023-04-22T13:32:03.992Z,20.60
2023-04-22T13:35:26.247Z,20.60
2023-04-22T13:38:48.516Z,20.70
2023-04-22T13:42:11.358Z,20.70
2023-04-22T13:45:33.561Z,20.60
2023-04-22T13:48:56.717Z,20.60
2023-04-22T13:52:18.922Z,20.60
2023-04-22T13:55:43.034Z,20.60
2023-04-22T13:59:05.266Z,20.60
2023-04-22T14:02:27.707Z,20.60
2023-04-22T14:05:50.074Z,20.60
2023-04-22T14:09:12.477Z,20.60
2023-04-22T14:12:34.810Z,20.60
2023-04-22T14:15:57.665Z,20.60
2023-04-22T14:19:20.276Z,20.60
2023-04-22T14:22:42.632Z,20.70
2023-04-22T14:26:06.744Z,20.70
2023-04-22T14:29:29.930Z,20.70
2023-04-22T14:32:52.728Z,20.70
2023-04-22T14:36:15.898Z,20.70
2023-04-22T14:39:38.360Z,20.70
2023-04-22T14:43:03.331Z,20.70
2023-04-22T14:46:25.659Z,20.70
2023-04-22T14:49:47.982Z,20.60
2023-04-22T14:53:10.278Z,20.60
2023-04-22T14:56:32.518Z,20.60
2023-04-22T14:59:54.686Z,20.60
2023-04-22T15:03:17.110Z,20.70
2023-04-22T15:06:39.491Z,20.70
2023-04-22T15:10:02.008Z,20.70
2023-04-22T15:13:24.194Z,20.70
2023-04-22T15:16:46.795Z,20.80
2023-04-22T15:20:09.650Z,20.60
2023-04-22T15:23:31.954Z,20.50
2023-04-22T15:26:54.891Z,20.40
2023-04-22T15:30:17.307Z,20.40
2023-04-22T15:33:39.509Z,20.40
2023-04-22T15:37:01.823Z,20.30
2023-04-22T15:40:24.309Z,20.30
2023-04-22T15:43:46.646Z,20.50
2023-04-22T15:47:09.655Z,20.70
2023-04-22T15:50:32.049Z,20.80
2023-04-22T15:53:57.127Z,20.80
2023-04-22T15:57:19.988Z,20.90
2023-04-22T16:00:42.264Z,20.90
2023-04-22T16:04:04.996Z,20.90
2023-04-22T16:07:27.539Z,20.90
2023-04-22T16:10:49.804Z,20.90
2023-04-22T16:14:12.484Z,20.90
2023-04-22T16:17:34.830Z,20.90
2023-04-22T16:20:58.720Z,20.90
2023-04-22T16:24:21.042Z,20.80
2023-04-22T16:27:43.257Z,20.90
2023-04-22T16:31:05.665Z,20.90
2023-04-22T16:34:27.921Z,20.90
2023-04-22T16:37:50.446Z,20.80
2023-04-22T16:41:14.970Z,20.80
2023-04-22T16:44:37.312Z,20.80
2023-04-22T16:47:59.607Z,20.80
2023-04-22T16:51:22.037Z,20.90
2023-04-22T16:54:44.311Z,21.00
2023-04-22T16:58:06.933Z,21.00
2023-04-22T17:01:30.154Z,21.00
2023-04-22T17:04:52.477Z,21.00
2023-04-22T17:08:14.812Z,21.00
2023-04-22T17:11:37.157Z,21.00
2023-04-22T17:14:59.560Z,21.00
2023-04-22T17:18:22.107Z,21.10
2023-04-22T17:21:44.431Z,21.10
2023-04-22T17:25:07.317Z,21.10
2023-04-22T17:28:29.590Z,21.10
2023-04-22T17:31:52.172Z,21.10
2023-04-22T17:35:14.487Z,21.10
2023-04-22T17:38:36.726Z,21.10
2023-04-22T17:41:59.053Z,21.10
2023-04-22T17:45:21.533Z,21.10
2023-04-22T17:48:46.615Z,21.10
2023-04-22T17:52:08.876Z,21.10
2023-04-22T17:55:34.994Z,21.20
2023-04-22T17:58:57.263Z,21.10
2023-04-22T18:02:20.505Z,21.10
2023-04-22T18:05:44.659Z,21.10
2023-04-22T18:09:07.036Z,21.10
2023-04-22T18:12:30.858Z,21.10
2023-04-22T18:15:53.237Z,21.10
2023-04-22T18:19:15.539Z,21.10
2023-04-22T18:22:37.806Z,21.10
2023-04-22T18:26:00.164Z,21.10
2023-04-22T18:29:22.397Z,21.10
2023-04-22T18:32:44.696Z,21.10
2023-04-22T18:36:07.177Z,21.10
2023-04-22T18:39:29.488Z,21.00
2023-04-22T18:42:51.832Z,21.00
2023-04-22T18:46:14.192Z,21.00
2023-04-22T18:49:36.502Z,20.90
2023-04-22T18:52:58.854Z,20.90
2023-04-22T18:56:21.114Z,20.90
2023-04-22T18:59:43.443Z,20.90
2023-04-22T19:03:05.843Z,20.90
2023-04-22T19:06:29.048Z,20.80
2023-04-22T19:09:51.248Z,20.80
2023-04-22T19:13:22.902Z,20.80
2023-04-22T19:16:51.330Z,20.80
2023-04-22T19:20:13.754Z,20.80
2023-04-22T19:23:36.500Z,20.80
2023-04-22T19:27:00.367Z,20.70
2023-04-22T19:30:26.362Z,20.70
2023-04-22T19:33:48.736Z,20.70
2023-04-22T19:37:11.022Z,20.70
2023-04-22T19:40:34.556Z,20.70
2023-04-22T19:43:58.988Z,20.70
2023-04-22T19:47:21.472Z,20.70
2023-04-22T19:50:44.716Z,20.70
2023-04-22T19:54:08.406Z,20.70
2023-04-22T19:57:30.696Z,20.70
2023-04-22T20:00:53.381Z,20.70
2023-04-22T20:04:15.998Z,20.70
2023-04-22T20:07:39.871Z,20.70
2023-04-22T20:11:02.429Z,20.70
2023-04-22T20:14:26.223Z,20.70
2023-04-22T20:17:49.060Z,20.70
2023-04-22T20:21:11.718Z,20.70
2023-04-22T20:24:37.216Z,20.70
2023-04-22T20:27:59.703Z,20.70
2023-04-22T20:31:23.473Z,20.70
2023-04-22T20:34:46.093Z,20.70
2023-04-22T20:38:13.185Z,20.70
2023-04-22T20:41:41.503Z,20.60
2023-04-22T20:45:07.186Z,20.40
2023-04-22T20:48:29.511Z,20.40
2023-04-22T20:51:53.009Z,20.40
2023-04-22T20:55:15.383Z,20.40
2023-04-22T20:58:37.538Z,20.30
2023-04-22T21:02:00.312Z,20.30
2023-04-22T21:05:22.871Z,20.40
2023-04-22T21:08:47.032Z,20.50
2023-04-22T21:12:10.794Z,20.50
2023-04-22T21:15:33.921Z,20.60
2023-04-22T21:19:00.387Z,20.60
2023-04-22T21:22:22.817Z,20.60
2023-04-22T21:25:46.624Z,20.60
2023-04-22T21:29:09.045Z,20.60
2023-04-22T21:32:32.744Z,20.60
2023-04-22T21:35:55.754Z,20.60
2023-04-22T21:39:18.822Z,20.60
2023-04-22T21:42:41.694Z,20.60
2023-04-22T21:46:03.966Z,20.60
2023-04-22T21:49:26.403Z,20.60
2023-04-22T21:52:49.347Z,20.60
2023-04-22T21:56:11.858Z,20.60
2023-04-22T21:59:34.069Z,20.60
2023-04-22T22:02:56.459Z,20.60
2023-04-22T22:06:19.247Z,20.50
2023-04-22T22:09:43.893Z,20.50
2023-04-22T22:13:06.208Z,20.60
2023-04-22T22:16:28.888Z,20.50
2023-04-22T22:19:51.454Z,20.50
2023-04-22T22:23:13.727Z,20.50
2023-04-22T22:26:36.531Z,20.50
2023-04-22T22:29:58.762Z,20.50
2023-04-22T22:33:20.981Z,20.50
2023-04-22T22:36:43.235Z,20.50
2023-04-22T22:40:06.343Z,20.50
2023-04-22T22:43:28.632Z,20.50
2023-04-22T22:46:50.901Z,20.50
2023-04-22T22:50:13.214Z,20.50
2023-04-22T22:53:36.715Z,20.50
2023-04-22T22:56:59.060Z,20.50
2023-04-22T23:00:21.442Z,20.40
2023-04-22T23:03:44.046Z,20.50
2023-04-22T23:07:06.480Z,20.40
2023-04-22T23:10:28.770Z,20.40
2023-04-22T23:13:50.974Z,20.40
2023-04-22T23:17:13.544Z,20.40
2023-04-22T23:20:37.080Z,20.40
2023-04-22T23:24:01.392Z,20.30
2023-04-22T23:27:23.846Z,20.40
2023-04-22T23:30:47.385Z,20.40
2023-04-22T23:34:09.853Z,20.40
2023-04-22T23:37:32.681Z,20.40
2023-04-22T23:40:54.927Z,20.30
2023-04-22T23:44:17.240Z,20.40
2023-04-22T23:47:39.955Z,20.40
2023-04-22T23:51:02.527Z,20.40
2023-04-22T23:54:25.099Z,20.30
2023-04-22T23:57:47.573Z,20.30
